Time;durP1;ratioP1;P1;durP2;ratioP2;P2;SDS_P1;SDS_P2;PMS_P1;PMS_P2;Temp;Humidity;BMP_temperature;BMP_pressure;BME280_temperature;BME280_humidity;BME280_pressure;Samples;Min_cycle;Max_cycle;Signal;HPM_P1;HPM_P2
2022/03/24 00:01:28;;;;;;;;;;;1.80;89.70;;;;;;5033878;28;20001;-72
2022/03/24 00:03:53;;;;;;;;;;;1.80;90.00;;;;;;5033835;28;19913;-72
2022/03/24 00:06:19;;;;;;;;;;;1.80;90.10;;;;;;5033773;28;19913;-71
2022/03/24 00:08:44;;;;;;;;;;;1.80;90.10;;;;;;5033929;28;19931;-72
2022/03/24 00:11:10;;;;;;;;;;;1.80;90.20;;;;;;5033955;28;19909;-71
2022/03/24 00:13:36;;;;;;;;;;;2.00;90.20;;;;;;5033517;28;19962;-71
2022/03/24 00:16:02;;;;;;;;;;;2.10;89.80;;;;;;5033492;28;19949;-72
2022/03/24 00:18:31;;;;;;;;;;;2.00;89.60;;;;;;5052984;28;19916;-71
2022/03/24 00:20:57;;;;;;;;;;;1.80;90.10;;;;;;5052847;28;19940;-71
2022/03/24 00:23:23;;;;;;;;;;;1.50;90.60;;;;;;5052647;28;19987;-72
2022/03/24 00:25:48;;;;;;;;;;;1.30;90.90;;;;;;5046661;28;19909;-71
2022/03/24 00:28:14;;;;;;;;;;;1.40;91.10;;;;;;5036035;28;19909;-72
2022/03/24 00:30:39;;;;;;;;;;;1.40;91.40;;;;;;5033778;28;19910;-71
2022/03/24 00:33:05;;;;;;;;;;;1.40;91.40;;;;;;5032988;28;19909;-71
2022/03/24 00:35:31;;;;;;;;;;;1.50;91.40;;;;;;5041332;28;19959;-71
2022/03/24 00:37:57;;;;;;;;;;;1.50;91.10;;;;;;5033390;28;19954;-71
2022/03/24 00:40:22;;;;;;;;;;;1.70;90.90;;;;;;5033196;28;19909;-72
2022/03/24 00:42:48;;;;;;;;;;;1.70;90.90;;;;;;5033429;28;20277;-71
2022/03/24 00:45:13;;;;;;;;;;;1.60;91.20;;;;;;5032922;28;19963;-71
2022/03/24 00:47:39;;;;;;;;;;;1.40;91.50;;;;;;5033170;28;19935;-72
2022/03/24 00:50:05;;;;;;;;;;;1.30;91.80;;;;;;5033505;28;19913;-71
2022/03/24 00:52:31;;;;;;;;;;;1.20;91.90;;;;;;5032949;28;19915;-72
2022/03/24 00:54:56;;;;;;;;;;;1.00;92.20;;;;;;5033884;28;20332;-72
2022/03/24 00:57:21;;;;;;;;;;;0.90;92.50;;;;;;5042999;28;20323;-71
2022/03/24 00:59:47;;;;;;;;;;;0.90;92.60;;;;;;5035625;28;20302;-72
2022/03/24 01:02:14;;;;;;;;;;;0.80;92.80;;;;;;5032621;28;20585;-71
2022/03/24 01:04:41;;;;;;;;;;;0.80;93.20;;;;;;5033011;28;19917;-71
2022/03/24 01:07:07;;;;;;;;;;;0.80;93.50;;;;;;5032828;28;19909;-72
2022/03/24 01:09:33;;;;;;;;;;;0.70;93.90;;;;;;5032759;28;20313;-72
2022/03/24 01:11:58;;;;;;;;;;;0.80;94.00;;;;;;5032659;28;19999;-72
2022/03/24 01:14:25;;;;;;;;;;;1.10;93.60;;;;;;5032330;28;19963;-72
2022/03/24 01:16:51;;;;;;;;;;;1.20;93.40;;;;;;5032538;28;19917;-71
2022/03/24 01:19:17;;;;;;;;;;;1.10;93.40;;;;;;5032297;28;19955;-71
2022/03/24 01:21:42;;;;;;;;;;;1.30;93.00;;;;;;5031271;28;19905;-72
2022/03/24 01:24:08;;;;;;;;;;;1.30;92.60;;;;;;5032335;28;19917;-72
2022/03/24 01:26:34;;;;;;;;;;;1.20;92.60;;;;;;5039194;28;19910;-72
2022/03/24 01:29:00;;;;;;;;;;;0.80;93.30;;;;;;5044292;28;20011;-72
2022/03/24 01:31:25;;;;;;;;;;;0.70;94.10;;;;;;5032251;28;20286;-72
2022/03/24 01:33:51;;;;;;;;;;;0.60;94.20;;;;;;5030763;28;20007;-72
2022/03/24 01:36:18;;;;;;;;;;;0.80;94.20;;;;;;5032246;28;19913;-70
2022/03/24 01:38:43;;;;;;;;;;;0.80;94.10;;;;;;5032371;28;19940;-72
2022/03/24 01:41:09;;;;;;;;;;;0.90;94.00;;;;;;5032429;28;19967;-72
2022/03/24 01:43:35;;;;;;;;;;;0.70;93.90;;;;;;5051052;28;19916;-71
2022/03/24 01:46:01;;;;;;;;;;;0.40;95.20;;;;;;5051292;28;19962;-71
2022/03/24 01:48:27;;;;;;;;;;;0.20;95.70;;;;;;5051133;28;19909;-71
2022/03/24 01:50:52;;;;;;;;;;;0.30;96.00;;;;;;5051265;28;19909;-71
2022/03/24 01:53:18;;;;;;;;;;;0.50;95.60;;;;;;5050918;28;19916;-71
2022/03/24 01:55:44;;;;;;;;;;;0.70;95.20;;;;;;5045448;28;19964;-72
2022/03/24 01:58:11;;;;;;;;;;;0.60;94.80;;;;;;5035557;28;19913;-72
2022/03/24 02:00:37;;;;;;;;;;;0.60;94.90;;;;;;5031936;28;20335;-72
2022/03/24 02:03:04;;;;;;;;;;;0.50;95.00;;;;;;5031823;28;19909;-72
2022/03/24 02:05:34;;;;;;;;;;;0.30;95.60;;;;;;5032005;28;19920;-71
2022/03/24 02:08:03;;;;;;;;;;;0.10;96.20;;;;;;5030779;28;19913;-71
2022/03/24 02:10:32;;;;;;;;;;;0.00;96.60;;;;;;5031997;28;19909;-72
2022/03/24 02:12:58;;;;;;;;;;;0.00;97.00;;;;;;5031869;28;20342;-72
2022/03/24 02:15:24;;;;;;;;;;;0.10;97.40;;;;;;5035273;28;20004;-70
2022/03/24 02:17:52;;;;;;;;;;;0.30;97.20;;;;;;5036437;28;19917;-71
2022/03/24 02:20:19;;;;;;;;;;;0.30;97.10;;;;;;5035844;28;19910;-71
2022/03/24 02:22:45;;;;;;;;;;;0.40;96.80;;;;;;5035797;28;19963;-72
2022/03/24 02:25:11;;;;;;;;;;;0.40;96.80;;;;;;5036431;28;19992;-72
2022/03/24 02:27:37;;;;;;;;;;;0.30;96.60;;;;;;5047006;28;19944;-71
2022/03/24 02:30:03;;;;;;;;;;;0.20;96.90;;;;;;5037136;28;19916;-71
2022/03/24 02:32:29;;;;;;;;;;;0.20;97.30;;;;;;5035615;28;20345;-71
2022/03/24 02:34:55;;;;;;;;;;;0.20;97.30;;;;;;5035417;28;19960;-72
2022/03/24 02:37:22;;;;;;;;;;;0.00;97.50;;;;;;5035619;28;20365;-72
2022/03/24 02:39:49;;;;;;;;;;;-0.20;98.20;;;;;;5035553;28;19917;-72
2022/03/24 02:42:15;;;;;;;;;;;-0.20;98.70;;;;;;5035368;28;19948;-71
2022/03/24 02:44:45;;;;;;;;;;;-0.20;99.10;;;;;;5035085;28;19909;-71
2022/03/24 02:47:12;;;;;;;;;;;0.20;98.80;;;;;;5035444;28;19963;-71
2022/03/24 02:49:38;;;;;;;;;;;0.10;98.20;;;;;;5035342;28;20290;-71
2022/03/24 02:52:04;;;;;;;;;;;0.00;98.40;;;;;;5035263;28;20358;-71
2022/03/24 02:54:30;;;;;;;;;;;-0.10;98.90;;;;;;5035931;28;19920;-71
2022/03/24 02:56:55;;;;;;;;;;;-0.20;99.00;;;;;;5042406;28;19913;-71
2022/03/24 02:59:21;;;;;;;;;;;-0.30;99.90;;;;;;5040407;28;19915;-71
2022/03/24 03:01:53;;;;;;;;;;;-0.10;99.70;;;;;;5035228;28;20008;-71
2022/03/24 03:04:18;;;;;;;;;;;0.00;99.20;;;;;;5035009;28;19909;-71
2022/03/24 03:06:45;;;;;;;;;;;-0.10;99.10;;;;;;5035073;28;19915;-71
2022/03/24 03:09:14;;;;;;;;;;;-0.30;99.60;;;;;;5034973;28;19995;-71
2022/03/24 03:11:40;;;;;;;;;;;-0.50;99.90;;;;;;5051430;28;19917;-71
2022/03/24 03:14:05;;;;;;;;;;;-0.50;99.90;;;;;;5052515;28;19974;-71
2022/03/24 03:16:31;;;;;;;;;;;-0.20;99.90;;;;;;5053915;28;19923;-71
2022/03/24 03:18:57;;;;;;;;;;;0.00;99.90;;;;;;5051192;28;19910;-71
2022/03/24 03:21:23;;;;;;;;;;;0.00;99.90;;;;;;5034734;28;19913;-71
2022/03/24 03:23:48;;;;;;;;;;;0.00;99.90;;;;;;5034496;28;19920;-71
2022/03/24 03:26:17;;;;;;;;;;;0.00;99.90;;;;;;5044960;28;19909;-71
2022/03/24 03:28:43;;;;;;;;;;;0.00;99.90;;;;;;5037317;28;19913;-71
2022/03/24 03:31:09;;;;;;;;;;;-0.20;99.90;;;;;;5034632;28;19944;-70
2022/03/24 03:33:36;;;;;;;;;;;-0.50;99.90;;;;;;5034273;28;19960;-71
2022/03/24 03:36:03;;;;;;;;;;;-0.40;99.90;;;;;;5034461;28;19913;-70
2022/03/24 03:38:29;;;;;;;;;;;-0.40;99.90;;;;;;5034564;28;20370;-70
2022/03/24 03:40:55;;;;;;;;;;;-0.40;99.90;;;;;;5034300;28;19916;-71
2022/03/24 03:43:21;;;;;;;;;;;-0.40;99.90;;;;;;5034035;28;19909;-71
2022/03/24 03:45:47;;;;;;;;;;;-0.50;99.90;;;;;;5034357;28;19999;-71
2022/03/24 03:48:12;;;;;;;;;;;-0.70;99.90;;;;;;5034339;28;19992;-71
2022/03/24 03:50:41;;;;;;;;;;;-0.70;99.90;;;;;;5034213;28;20380;-71
2022/03/24 03:53:08;;;;;;;;;;;-0.80;99.90;;;;;;5034473;28;19909;-71
2022/03/24 03:55:34;;;;;;;;;;;-0.70;99.90;;;;;;5036101;28;20441;-71
2022/03/24 03:57:59;;;;;;;;;;;-0.50;99.90;;;;;;5047815;28;20000;-71
2022/03/24 04:03:09;;;;;;;;;;;-0.60;99.90;;;;;;5033740;28;19916;-71
2022/03/24 04:05:34;;;;;;;;;;;-0.90;99.90;;;;;;5033896;28;19913;-70
2022/03/24 04:08:03;;;;;;;;;;;-1.00;99.90;;;;;;5033804;28;20874;-71
2022/03/24 04:10:30;;;;;;;;;;;-0.90;99.90;;;;;;5033837;28;20165;-71
2022/03/24 04:12:55;;;;;;;;;;;-0.90;99.90;;;;;;5033715;28;20527;-71
2022/03/24 04:15:21;;;;;;;;;;;-0.90;99.90;;;;;;5033529;28;19913;-71
2022/03/24 04:17:47;;;;;;;;;;;-1.00;99.90;;;;;;5033712;28;19917;-71
2022/03/24 04:20:13;;;;;;;;;;;-1.00;99.90;;;;;;5033646;28;19915;-71
2022/03/24 04:22:39;;;;;;;;;;;-1.10;99.90;;;;;;5032108;28;20428;-71
2022/03/24 04:25:05;;;;;;;;;;;-1.10;99.90;;;;;;5039915;28;19912;-72
2022/03/24 04:27:30;;;;;;;;;;;-1.20;99.90;;;;;;5037029;28;19915;-71
2022/03/24 04:29:56;;;;;;;;;;;-1.10;99.90;;;;;;5033527;28;19915;-71
2022/03/24 04:32:22;;;;;;;;;;;-1.20;99.90;;;;;;5033387;28;20341;-71
2022/03/24 04:34:47;;;;;;;;;;;-1.30;99.90;;;;;;5033062;28;19910;-71
2022/03/24 04:37:14;;;;;;;;;;;-1.20;99.90;;;;;;5032767;28;19909;-72
2022/03/24 04:39:39;;;;;;;;;;;-1.20;99.90;;;;;;5033155;28;19909;-71
2022/03/24 04:42:06;;;;;;;;;;;-1.20;99.90;;;;;;5033148;28;19986;-72
2022/03/24 04:44:32;;;;;;;;;;;-1.20;99.90;;;;;;5033268;28;19913;-71
2022/03/24 04:46:58;;;;;;;;;;;-1.00;99.90;;;;;;5033057;28;19932;-71
2022/03/24 04:49:23;;;;;;;;;;;-1.00;99.90;;;;;;5052187;28;19909;-72
2022/03/24 04:51:49;;;;;;;;;;;-1.00;99.90;;;;;;5051968;28;19913;-71
2022/03/24 04:54:14;;;;;;;;;;;-1.20;99.90;;;;;;5046243;28;20354;-71
2022/03/24 04:56:40;;;;;;;;;;;-1.30;99.90;;;;;;5047501;28;19914;-71
2022/03/24 04:59:05;;;;;;;;;;;-1.00;99.90;;;;;;5034865;28;20309;-71
2022/03/24 05:01:31;;;;;;;;;;;-0.70;99.90;;;;;;5032878;28;19945;-70
2022/03/24 05:03:57;;;;;;;;;;;-0.60;99.90;;;;;;5032680;28;19909;-71
2022/03/24 05:06:22;;;;;;;;;;;-0.70;99.90;;;;;;5032727;28;19917;-71
2022/03/24 05:08:48;;;;;;;;;;;-1.00;99.90;;;;;;5032807;28;19909;-72
2022/03/24 05:11:13;;;;;;;;;;;-1.30;99.90;;;;;;5032673;28;19916;-73
2022/03/24 05:13:39;;;;;;;;;;;-1.40;99.90;;;;;;5032492;28;20289;-71
2022/03/24 05:16:04;;;;;;;;;;;-1.40;99.90;;;;;;5037148;28;20016;-71
2022/03/24 05:18:29;;;;;;;;;;;-1.30;99.90;;;;;;5040541;28;19915;-73
2022/03/24 05:20:55;;;;;;;;;;;-1.10;99.90;;;;;;5040777;28;20362;-71
2022/03/24 05:23:21;;;;;;;;;;;-1.10;99.90;;;;;;5039720;28;20004;-72
2022/03/24 05:25:49;;;;;;;;;;;-1.00;99.90;;;;;;5041777;28;19917;-72
2022/03/24 05:28:15;;;;;;;;;;;-1.10;99.90;;;;;;5044828;28;20397;-72
2022/03/24 05:30:41;;;;;;;;;;;-1.30;99.90;;;;;;5038232;28;20003;-72
2022/03/24 05:33:06;;;;;;;;;;;-1.30;99.90;;;;;;5033923;28;20367;-72
2022/03/24 05:35:35;;;;;;;;;;;-1.10;99.90;;;;;;5031940;28;20305;-72
2022/03/24 05:38:04;;;;;;;;;;;-0.90;99.90;;;;;;5031086;28;20354;-72
2022/03/24 05:40:29;;;;;;;;;;;-1.00;99.90;;;;;;5030922;28;19929;-72
2022/03/24 05:42:55;;;;;;;;;;;-1.10;99.90;;;;;;5030730;28;19913;-72
2022/03/24 05:45:20;;;;;;;;;;;-1.10;99.90;;;;;;5030746;28;19909;-72
2022/03/24 05:47:46;;;;;;;;;;;-1.20;99.90;;;;;;5030257;28;19913;-71
2022/03/24 05:50:12;;;;;;;;;;;-0.90;99.90;;;;;;5030372;28;19916;-71
2022/03/24 05:52:38;;;;;;;;;;;-0.80;99.90;;;;;;5030725;28;19909;-72
2022/03/24 05:55:03;;;;;;;;;;;-0.90;99.90;;;;;;5034776;28;20441;-72
2022/03/24 05:57:29;;;;;;;;;;;-0.80;99.90;;;;;;5034884;28;20004;-72
2022/03/24 05:59:54;;;;;;;;;;;-0.70;99.90;;;;;;5031675;28;19960;-72
2022/03/24 06:02:20;;;;;;;;;;;-0.40;99.90;;;;;;5031698;28;19962;-71
2022/03/24 06:04:46;;;;;;;;;;;-0.50;99.90;;;;;;5031430;28;20000;-71
2022/03/24 06:07:14;;;;;;;;;;;-0.40;99.90;;;;;;5044137;28;19930;-71
2022/03/24 06:09:39;;;;;;;;;;;-0.50;99.90;;;;;;5039479;28;20390;-72
2022/03/24 06:12:08;;;;;;;;;;;-0.40;99.90;;;;;;5029996;28;19915;-71
2022/03/24 06:14:35;;;;;;;;;;;-0.30;99.90;;;;;;5043225;28;19909;-71
2022/03/24 06:17:01;;;;;;;;;;;-0.20;99.90;;;;;;5040688;28;20012;-73
2022/03/24 06:19:27;;;;;;;;;;;-0.30;99.90;;;;;;5037708;28;19937;-72
2022/03/24 06:21:52;;;;;;;;;;;-0.20;99.90;;;;;;5035739;28;19916;-72
2022/03/24 06:24:18;;;;;;;;;;;-0.20;99.90;;;;;;5029390;28;19909;-72
2022/03/24 06:26:43;;;;;;;;;;;0.00;99.90;;;;;;5036421;28;20106;-74
2022/03/24 06:29:11;;;;;;;;;;;0.20;99.90;;;;;;5032028;28;19920;-71
2022/03/24 06:31:36;;;;;;;;;;;0.20;99.90;;;;;;5031380;28;19905;-71
2022/03/24 06:34:02;;;;;;;;;;;0.30;99.90;;;;;;5029216;28;20012;-72
2022/03/24 06:36:27;;;;;;;;;;;0.40;99.90;;;;;;5035763;28;19978;-70
2022/03/24 06:38:53;;;;;;;;;;;0.50;99.90;;;;;;5040026;28;19909;-71
2022/03/24 06:41:18;;;;;;;;;;;0.60;99.90;;;;;;5043818;28;19940;-71
2022/03/24 06:43:46;;;;;;;;;;;0.60;99.90;;;;;;5037264;28;20417;-71
2022/03/24 06:46:12;;;;;;;;;;;0.80;99.90;;;;;;5040645;28;19948;-71
2022/03/24 06:48:37;;;;;;;;;;;1.20;99.90;;;;;;5031566;28;19979;-71
2022/03/24 06:51:03;;;;;;;;;;;1.60;99.90;;;;;;5031524;28;20516;-71
2022/03/24 06:53:28;;;;;;;;;;;2.00;99.90;;;;;;5031014;28;19909;-71
2022/03/24 06:55:54;;;;;;;;;;;2.30;99.90;;;;;;5031411;28;20247;-72
2022/03/24 06:58:19;;;;;;;;;;;2.70;99.90;;;;;;5031564;28;19949;-71
2022/03/24 07:00:45;;;;;;;;;;;3.00;99.90;;;;;;5038061;28;19935;-71
2022/03/24 07:03:11;;;;;;;;;;;3.20;99.90;;;;;;5047067;28;19912;-72
2022/03/24 07:05:37;;;;;;;;;;;3.50;99.90;;;;;;5034960;28;19909;-71
2022/03/24 07:08:04;;;;;;;;;;;3.80;99.90;;;;;;5041357;28;20428;-71
2022/03/24 07:10:30;;;;;;;;;;;3.70;99.90;;;;;;5044620;28;20354;-71
2022/03/24 07:12:56;;;;;;;;;;;3.60;99.90;;;;;;5053931;28;19945;-71
2022/03/24 07:15:23;;;;;;;;;;;3.80;99.30;;;;;;5053630;28;19913;-71
2022/03/24 07:17:48;;;;;;;;;;;3.90;98.60;;;;;;5052804;28;19920;-71
2022/03/24 07:20:14;;;;;;;;;;;4.10;98.00;;;;;;5037328;28;19916;-71
2022/03/24 07:22:39;;;;;;;;;;;4.10;97.80;;;;;;5034658;28;20476;-71
2022/03/24 07:25:06;;;;;;;;;;;4.30;97.10;;;;;;5033609;28;19995;-72
2022/03/24 07:27:32;;;;;;;;;;;4.60;96.30;;;;;;5033934;28;19913;-71
2022/03/24 07:29:57;;;;;;;;;;;4.90;95.50;;;;;;5033831;28;19916;-72
2022/03/24 07:32:24;;;;;;;;;;;5.10;95.20;;;;;;5033523;28;20051;-72
2022/03/24 07:34:49;;;;;;;;;;;5.20;94.80;;;;;;5036043;28;19913;-72
2022/03/24 07:37:15;;;;;;;;;;;5.60;94.00;;;;;;5034837;28;19909;-73
2022/03/24 07:39:41;;;;;;;;;;;5.80;93.40;;;;;;5038845;28;20004;-71
2022/03/24 07:42:07;;;;;;;;;;;6.00;93.20;;;;;;5035141;28;19909;-71
2022/03/24 07:44:33;;;;;;;;;;;6.20;92.90;;;;;;5043701;28;19909;-72
2022/03/24 07:46:58;;;;;;;;;;;6.40;93.00;;;;;;5033974;28;19921;-72
2022/03/24 07:49:24;;;;;;;;;;;6.60;92.80;;;;;;5034560;28;19909;-72
2022/03/24 07:51:50;;;;;;;;;;;6.90;92.30;;;;;;5035315;28;19920;-72
2022/03/24 07:54:15;;;;;;;;;;;7.40;92.20;;;;;;5034639;28;19917;-73
2022/03/24 07:56:41;;;;;;;;;;;9.60;90.20;;;;;;5033389;28;19924;-70
2022/03/24 07:59:07;;;;;;;;;;;11.80;80.10;;;;;;5033297;28;20438;-71
2022/03/24 08:01:33;;;;;;;;;;;13.20;73.40;;;;;;5048124;28;19917;-71
2022/03/24 08:04:00;;;;;;;;;;;14.20;67.80;;;;;;5035288;28;19916;-71
2022/03/24 08:06:25;;;;;;;;;;;14.70;64.30;;;;;;5048630;28;19916;-71
2022/03/24 08:08:51;;;;;;;;;;;14.90;63.00;;;;;;5033354;28;19909;-71
2022/03/24 08:11:17;;;;;;;;;;;15.50;60.70;;;;;;5032160;28;19913;-71
2022/03/24 08:13:42;;;;;;;;;;;15.40;60.30;;;;;;5032791;28;19987;-71
2022/03/24 08:16:08;;;;;;;;;;;15.40;59.60;;;;;;5032783;28;19956;-71
2022/03/24 08:18:33;;;;;;;;;;;15.90;59.30;;;;;;5033047;28;19910;-71
2022/03/24 08:20:59;;;;;;;;;;;15.80;57.90;;;;;;5032930;28;19921;-72
2022/03/24 08:23:24;;;;;;;;;;;16.40;55.60;;;;;;5032741;28;20397;-71
2022/03/24 08:25:51;;;;;;;;;;;17.10;52.90;;;;;;5032814;28;19932;-70
2022/03/24 08:28:17;;;;;;;;;;;17.90;51.00;;;;;;5033227;28;19909;-71
2022/03/24 08:30:44;;;;;;;;;;;18.50;49.60;;;;;;5036655;28;19909;-71
2022/03/24 08:33:10;;;;;;;;;;;18.50;47.20;;;;;;5032408;28;19913;-71
2022/03/24 08:35:36;;;;;;;;;;;19.10;47.20;;;;;;5034688;28;20432;-71
2022/03/24 08:38:02;;;;;;;;;;;18.80;40.10;;;;;;5045360;28;19916;-71
2022/03/24 08:40:27;;;;;;;;;;;18.80;45.20;;;;;;5032637;28;20004;-70
2022/03/24 08:42:53;;;;;;;;;;;18.80;40.10;;;;;;5033116;28;19908;-72
2022/03/24 08:45:18;;;;;;;;;;;19.70;39.70;;;;;;5040667;28;19939;-72
2022/03/24 08:47:44;;;;;;;;;;;19.80;41.40;;;;;;5037634;28;19909;-71
2022/03/24 08:50:10;;;;;;;;;;;20.40;38.20;;;;;;5032678;28;19971;-72
2022/03/24 08:52:36;;;;;;;;;;;20.30;36.50;;;;;;5032708;28;19915;-71
2022/03/24 08:55:05;;;;;;;;;;;21.10;40.90;;;;;;5032231;28;20015;-72
2022/03/24 08:57:31;;;;;;;;;;;21.40;39.30;;;;;;5032254;28;20369;-73
2022/03/24 08:59:57;;;;;;;;;;;21.90;37.40;;;;;;5032359;28;19917;-73
2022/03/24 09:02:23;;;;;;;;;;;21.40;36.90;;;;;;5035047;28;20366;-72
2022/03/24 09:04:49;;;;;;;;;;;22.30;38.80;;;;;;5046431;28;19916;-73
2022/03/24 09:07:15;;;;;;;;;;;22.00;38.60;;;;;;5040091;28;19917;-73
2022/03/24 09:09:41;;;;;;;;;;;22.20;38.80;;;;;;5044223;28;19916;-73
2022/03/24 09:12:07;;;;;;;;;;;23.00;36.40;;;;;;5032672;28;19909;-73
2022/03/24 09:14:32;;;;;;;;;;;23.60;35.70;;;;;;5032039;28;19913;-73
2022/03/24 09:16:58;;;;;;;;;;;24.00;34.90;;;;;;5032072;28;19917;-72
2022/03/24 09:19:23;;;;;;;;;;;24.10;35.10;;;;;;5032061;28;19915;-72
2022/03/24 09:22:11;;;;;;;;;;;23.90;34.90;;;;;;5035433;28;19909;-72
2022/03/24 09:24:36;;;;;;;;;;;24.00;34.30;;;;;;5041324;28;19915;-72
2022/03/24 09:27:03;;;;;;;;;;;24.50;33.40;;;;;;5037487;28;19909;-72
2022/03/24 09:29:29;;;;;;;;;;;24.20;35.20;;;;;;5032145;28;20418;-72
2022/03/24 09:31:54;;;;;;;;;;;25.00;34.30;;;;;;5031898;28;19997;-72
2022/03/24 09:34:20;;;;;;;;;;;25.00;31.70;;;;;;5032132;28;19913;-72
2022/03/24 09:36:46;;;;;;;;;;;24.30;33.90;;;;;;5031911;28;20007;-71
2022/03/24 09:39:11;;;;;;;;;;;25.30;34.10;;;;;;5031725;28;19909;-72
2022/03/24 09:41:37;;;;;;;;;;;25.30;32.60;;;;;;5029700;28;19966;-72
2022/03/24 09:44:04;;;;;;;;;;;24.90;32.40;;;;;;5048255;28;19908;-72
2022/03/24 09:46:31;;;;;;;;;;;24.70;33.70;;;;;;5034468;28;19920;-72
2022/03/24 09:48:58;;;;;;;;;;;25.20;33.60;;;;;;5031626;28;19909;-71
2022/03/24 09:51:24;;;;;;;;;;;25.90;30.70;;;;;;5031587;28;20332;-72
2022/03/24 09:53:50;;;;;;;;;;;26.30;31.40;;;;;;5036557;28;19956;-73
2022/03/24 09:56:16;;;;;;;;;;;26.00;32.10;;;;;;5041916;28;20392;-73
2022/03/24 09:58:44;;;;;;;;;;;26.50;30.70;;;;;;5031714;28;19913;-73
2022/03/24 10:01:10;;;;;;;;;;;27.00;30.10;;;;;;5031714;28;20111;-71
2022/03/24 10:03:35;;;;;;;;;;;26.20;28.30;;;;;;5032420;28;19955;-72
2022/03/24 10:06:07;;;;;;;;;;;26.20;30.70;;;;;;5046760;28;19916;-71
2022/03/24 10:08:33;;;;;;;;;;;26.20;31.90;;;;;;5031231;28;19920;-71
2022/03/24 10:10:59;;;;;;;;;;;27.40;28.90;;;;;;5031379;28;19916;-72
2022/03/24 10:13:40;;;;;;;;;;;28.10;29.40;;;;;;5031330;28;19917;-73
2022/03/24 10:16:06;;;;;;;;;;;27.50;29.60;;;;;;5030926;28;19921;-72
2022/03/24 10:18:32;;;;;;;;;;;27.50;29.40;;;;;;5042505;28;19924;-72
2022/03/24 10:21:00;;;;;;;;;;;28.20;31.30;;;;;;5041505;28;19913;-72
2022/03/24 10:23:25;;;;;;;;;;;27.50;29.20;;;;;;5030841;28;20397;-72
2022/03/24 10:25:52;;;;;;;;;;;27.20;29.10;;;;;;5031108;28;19996;-72
2022/03/24 10:28:18;;;;;;;;;;;27.90;31.10;;;;;;5031418;28;19909;-71
2022/03/24 10:30:51;;;;;;;;;;;28.40;29.50;;;;;;5031243;28;19910;-71
2022/03/24 10:33:39;;;;;;;;;;;27.40;29.20;;;;;;5036340;28;20412;-72
2022/03/24 10:36:12;;;;;;;;;;;26.80;28.10;;;;;;5041500;28;19919;-72
2022/03/24 10:38:39;;;;;;;;;;;28.20;29.30;;;;;;5054430;28;19940;-73
2022/03/24 10:41:15;;;;;;;;;;;28.00;29.00;;;;;;5035240;28;20421;-72
2022/03/24 10:43:41;;;;;;;;;;;27.80;29.50;;;;;;5036700;28;20306;-72
2022/03/24 10:46:14;;;;;;;;;;;28.80;29.20;;;;;;5045554;28;19912;-71
2022/03/24 10:48:40;;;;;;;;;;;28.20;27.90;;;;;;5034824;28;19913;-73
2022/03/24 10:51:06;;;;;;;;;;;28.00;27.50;;;;;;5034780;28;19964;-71
2022/03/24 10:53:41;;;;;;;;;;;28.50;28.80;;;;;;5034560;28;20285;-71
2022/03/24 10:56:10;;;;;;;;;;;29.70;29.50;;;;;;5034776;28;19953;-71
2022/03/24 10:58:39;;;;;;;;;;;26.80;29.20;;;;;;5034607;28;19913;-72
2022/03/24 11:01:09;;;;;;;;;;;26.40;28.00;;;;;;5036274;28;19948;-72
2022/03/24 11:03:34;;;;;;;;;;;28.00;28.90;;;;;;5050353;28;19909;-72
2022/03/24 11:06:04;;;;;;;;;;;28.70;29.80;;;;;;5044690;28;19970;-72
2022/03/24 11:08:29;;;;;;;;;;;29.40;28.00;;;;;;5046922;28;20382;-72
2022/03/24 11:10:55;;;;;;;;;;;28.70;26.50;;;;;;5044288;28;19913;-72
2022/03/24 11:13:40;;;;;;;;;;;28.10;26.80;;;;;;5034091;28;19909;-73
2022/03/24 11:16:08;;;;;;;;;;;28.30;28.70;;;;;;5034006;28;19917;-72
2022/03/24 11:18:33;;;;;;;;;;;28.50;27.10;;;;;;5034345;28;20342;-72
2022/03/24 11:21:04;;;;;;;;;;;29.80;27.80;;;;;;5034179;28;19917;-72
2022/03/24 11:23:34;;;;;;;;;;;28.70;28.10;;;;;;5033521;28;19909;-71
2022/03/24 11:26:02;;;;;;;;;;;27.90;27.00;;;;;;5034159;28;19921;-72
2022/03/24 11:28:27;;;;;;;;;;;27.20;26.80;;;;;;5034199;28;19910;-72
2022/03/24 11:30:53;;;;;;;;;;;29.00;27.80;;;;;;5033766;28;19919;-72
2022/03/24 11:33:19;;;;;;;;;;;28.10;26.60;;;;;;5033527;28;20386;-71
2022/03/24 11:35:44;;;;;;;;;;;29.90;26.70;;;;;;5033396;28;19913;-72
2022/03/24 11:38:10;;;;;;;;;;;30.20;26.60;;;;;;5042994;28;20242;-72
2022/03/24 11:40:36;;;;;;;;;;;29.50;25.60;;;;;;5050869;28;19955;-72
2022/03/24 11:43:05;;;;;;;;;;;30.30;26.20;;;;;;5041549;28;19955;-71
2022/03/24 11:45:35;;;;;;;;;;;29.10;26.10;;;;;;5048239;28;19932;-72
2022/03/24 11:48:07;;;;;;;;;;;29.20;26.10;;;;;;5034367;28;20002;-72
2022/03/24 11:50:34;;;;;;;;;;;28.80;27.20;;;;;;5033388;28;19913;-72
2022/03/24 11:53:09;;;;;;;;;;;28.60;27.10;;;;;;5033608;28;20008;-73
2022/03/24 11:55:37;;;;;;;;;;;27.30;27.70;;;;;;5052964;28;19991;-72
2022/03/24 11:58:03;;;;;;;;;;;27.50;29.60;;;;;;5052901;28;19915;-72
2022/03/24 12:00:28;;;;;;;;;;;28.00;28.50;;;;;;5052537;28;19909;-71
2022/03/24 12:02:58;;;;;;;;;;;26.80;27.00;;;;;;5052280;28;20425;-72
2022/03/24 12:05:43;;;;;;;;;;;27.10;28.90;;;;;;5052505;28;19966;-74
2022/03/24 12:08:09;;;;;;;;;;;25.10;30.00;;;;;;5051118;28;19908;-71
2022/03/24 12:10:38;;;;;;;;;;;21.10;35.60;;;;;;5036093;28;19916;-72
2022/03/24 12:13:19;;;;;;;;;;;19.80;38.30;;;;;;5033926;28;19909;-71
2022/03/24 12:19:08;;;;;;;;;;;19.00;38.10;;;;;;5046846;28;19923;-73
2022/03/24 12:21:34;;;;;;;;;;;19.10;37.60;;;;;;5033183;28;19935;-74
2022/03/24 12:24:12;;;;;;;;;;;18.80;37.10;;;;;;5032604;28;19917;-71
2022/03/24 12:26:38;;;;;;;;;;;18.70;39.70;;;;;;5033227;28;19920;-73
2022/03/24 12:29:10;;;;;;;;;;;18.90;38.20;;;;;;5032981;28;19909;-71
2022/03/24 12:31:54;;;;;;;;;;;18.30;35.70;;;;;;5039231;28;19996;-74
2022/03/24 12:34:21;;;;;;;;;;;18.70;37.00;;;;;;5032106;28;19913;-74
2022/03/24 12:36:47;;;;;;;;;;;18.20;37.30;;;;;;5036049;28;19952;-72
2022/03/24 12:39:28;;;;;;;;;;;18.30;39.40;;;;;;5040650;28;20489;-73
2022/03/24 12:42:03;;;;;;;;;;;18.20;37.00;;;;;;5031916;28;20324;-72
2022/03/24 12:44:48;;;;;;;;;;;17.90;36.00;;;;;;5037325;28;20263;-73
2022/03/24 12:47:29;;;;;;;;;;;17.90;38.30;;;;;;5044057;28;19910;-72
2022/03/24 12:49:56;;;;;;;;;;;17.80;36.70;;;;;;5032522;28;19909;-72
2022/03/24 12:52:21;;;;;;;;;;;17.70;37.10;;;;;;5032751;28;19970;-71
2022/03/24 12:54:50;;;;;;;;;;;17.80;37.00;;;;;;5032677;28;19913;-73
2022/03/24 12:57:23;;;;;;;;;;;17.90;37.50;;;;;;5032255;28;20003;-71
2022/03/24 12:59:49;;;;;;;;;;;17.70;37.50;;;;;;5032549;28;19909;-72
2022/03/24 13:02:15;;;;;;;;;;;17.40;36.40;;;;;;5035473;28;20297;-73
2022/03/24 13:04:40;;;;;;;;;;;17.70;37.30;;;;;;5049869;28;19978;-71
2022/03/24 13:07:07;;;;;;;;;;;17.70;37.50;;;;;;5032485;28;19909;-71
2022/03/24 13:09:32;;;;;;;;;;;17.60;36.60;;;;;;5046947;28;19936;-72
2022/03/24 13:12:06;;;;;;;;;;;17.50;37.80;;;;;;5034081;28;19909;-71
2022/03/24 13:14:45;;;;;;;;;;;17.50;36.70;;;;;;5032671;28;20385;-71
2022/03/24 13:17:13;;;;;;;;;;;17.40;36.60;;;;;;5028058;28;20389;-72
2022/03/24 13:19:39;;;;;;;;;;;17.40;35.70;;;;;;5051475;28;20385;-70
2022/03/24 13:22:10;;;;;;;;;;;17.30;36.80;;;;;;5051339;28;20358;-71
2022/03/24 13:24:36;;;;;;;;;;;17.20;35.20;;;;;;5046522;28;19916;-70
2022/03/24 13:27:03;;;;;;;;;;;17.50;37.80;;;;;;5051387;28;19909;-70
2022/03/24 13:29:54;;;;;;;;;;;17.50;37.00;;;;;;5051220;28;19951;-71
2022/03/24 13:32:23;;;;;;;;;;;17.60;37.60;;;;;;5051881;28;19913;-71
2022/03/24 13:34:52;;;;;;;;;;;17.50;36.10;;;;;;5050559;28;19966;-72
2022/03/24 13:37:20;;;;;;;;;;;17.50;35.70;;;;;;5044489;28;19959;-72
2022/03/24 13:39:46;;;;;;;;;;;17.40;37.50;;;;;;5043874;28;19912;-70
2022/03/24 13:42:12;;;;;;;;;;;17.50;35.50;;;;;;5046023;28;19937;-72
2022/03/24 13:44:38;;;;;;;;;;;17.60;37.00;;;;;;5040394;28;19909;-70
2022/03/24 13:47:04;;;;;;;;;;;17.40;34.20;;;;;;5038553;28;20329;-70
2022/03/24 13:49:29;;;;;;;;;;;17.50;36.80;;;;;;5032171;28;20160;-70
2022/03/24 13:51:55;;;;;;;;;;;17.30;36.20;;;;;;5032251;28;20337;-71
2022/03/24 13:54:20;;;;;;;;;;;17.20;33.60;;;;;;5031349;28;19960;-71
2022/03/24 13:56:47;;;;;;;;;;;17.40;37.20;;;;;;5031244;28;20023;-71
2022/03/24 13:59:12;;;;;;;;;;;17.20;36.00;;;;;;5031393;28;19932;-71
2022/03/24 14:01:38;;;;;;;;;;;17.60;35.40;;;;;;5033385;28;19909;-71
2022/03/24 14:04:15;;;;;;;;;;;17.40;35.00;;;;;;5029453;28;20120;-71
2022/03/24 14:06:41;;;;;;;;;;;17.40;37.10;;;;;;5037669;28;19913;-73
2022/03/24 14:09:06;;;;;;;;;;;17.40;35.90;;;;;;5043101;28;19915;-74
2022/03/24 14:11:36;;;;;;;;;;;17.40;36.50;;;;;;5039123;28;20298;-70
2022/03/24 14:14:16;;;;;;;;;;;17.20;36.40;;;;;;5035779;28;19944;-71
2022/03/24 14:16:43;;;;;;;;;;;17.10;35.50;;;;;;5035765;28;19920;-71
2022/03/24 14:19:11;;;;;;;;;;;17.10;36.40;;;;;;5038034;28;20044;-74
2022/03/24 14:21:39;;;;;;;;;;;17.20;35.70;;;;;;5041264;28;20366;-71
2022/03/24 14:24:05;;;;;;;;;;;17.30;36.90;;;;;;5035092;28;19913;-73
2022/03/24 14:26:31;;;;;;;;;;;17.20;34.60;;;;;;5039265;28;19979;-71